createdAt,value
2022-10-08T00:00:46.089Z,2.15
2022-10-08T00:03:14.207Z,2.28
2022-10-08T00:05:41.169Z,2.58
2022-10-08T00:08:08.703Z,2.38
2022-10-08T00:10:36.667Z,1.80
2022-10-08T00:13:04.858Z,2.28
2022-10-08T00:15:36.324Z,1.80
2022-10-08T00:18:03.080Z,1.85
2022-10-08T00:20:29.573Z,1.92
2022-10-08T00:22:56.212Z,1.40
2022-10-08T00:25:23.543Z,1.98
2022-10-08T00:27:51.125Z,1.23
2022-10-08T00:30:17.705Z,1.92
2022-10-08T00:32:45.245Z,1.92
2022-10-08T00:35:12.182Z,1.65
2022-10-08T00:37:38.723Z,2.53
2022-10-08T00:40:05.892Z,1.50
2022-10-08T00:42:32.406Z,2.17
2022-10-08T00:45:00.487Z,1.73
2022-10-08T00:47:33.126Z,1.30
2022-10-08T00:50:01.755Z,1.60
2022-10-08T00:52:34.879Z,1.92
2022-10-08T00:55:06.767Z,1.58
2022-10-08T00:57:35.603Z,1.90
2022-10-08T01:00:09.078Z,1.92
2022-10-08T01:02:35.738Z,1.77
2022-10-08T01:05:05.172Z,2.03
2022-10-08T01:07:59.526Z,1.65
2022-10-08T01:10:48.354Z,1.95
2022-10-08T01:13:33.257Z,1.80
2022-10-08T01:16:10.616Z,1.75
2022-10-08T01:18:51.912Z,2.22
2022-10-08T01:21:34.932Z,1.80
2022-10-08T01:24:49.653Z,1.63
2022-10-08T01:27:25.669Z,1.95
2022-10-08T01:29:53.517Z,1.83
2022-10-08T01:32:25.879Z,2.25
2022-10-08T01:34:59.205Z,1.70
2022-10-08T01:37:31.785Z,2.28
2022-10-08T01:40:02.096Z,2.50
2022-10-08T01:42:29.072Z,1.40
2022-10-08T01:45:01.621Z,2.28
2022-10-08T01:47:30.959Z,1.92
2022-10-08T01:50:12.675Z,1.80
2022-10-08T01:52:48.408Z,1.90
2022-10-08T01:55:23.434Z,1.90
2022-10-08T01:57:51.472Z,1.40
2022-10-08T02:00:18.263Z,2.10
2022-10-08T02:02:45.423Z,1.67
2022-10-08T02:05:12.324Z,2.17
2022-10-08T02:07:42.334Z,1.52
2022-10-08T02:10:12.821Z,1.52
2022-10-08T02:12:40.596Z,1.30
2022-10-08T02:15:22.328Z,1.67
2022-10-08T02:18:13.377Z,1.75
2022-10-08T02:20:50.359Z,1.60
2022-10-08T02:23:32.376Z,1.40
2022-10-08T02:26:01.463Z,1.80
2022-10-08T02:28:31.164Z,1.60
2022-10-08T02:31:07.520Z,1.63
2022-10-08T02:33:44.436Z,1.92
2022-10-08T02:36:14.646Z,1.33
2022-10-08T02:38:52.813Z,1.70
2022-10-08T02:41:24.975Z,1.52
2022-10-08T02:43:53.522Z,1.55
2022-10-08T02:46:28.378Z,1.60
2022-10-08T02:49:03.056Z,1.17
2022-10-08T02:51:31.931Z,1.25
2022-10-08T02:53:59.402Z,1.60
2022-10-08T02:56:32.577Z,1.33
2022-10-08T02:58:59.983Z,1.00
2022-10-08T03:01:30.598Z,0.95
2022-10-08T03:04:19.794Z,1.60
2022-10-08T03:06:48.758Z,1.23
2022-10-08T03:09:18.054Z,2.17
2022-10-08T03:11:45.158Z,1.55
2022-10-08T03:14:15.568Z,1.52
2022-10-08T03:16:44.713Z,1.77
2022-10-08T03:19:13.956Z,1.30
2022-10-08T03:21:42.780Z,1.58
2022-10-08T03:24:11.313Z,1.67
2022-10-08T03:26:38.116Z,1.73
2022-10-08T03:29:05.772Z,1.30
2022-10-08T03:31:32.841Z,1.63
2022-10-08T03:33:59.462Z,2.28
2022-10-08T03:36:26.268Z,2.28
2022-10-08T03:38:52.939Z,2.35
2022-10-08T03:41:19.627Z,1.85
2022-10-08T03:43:46.260Z,2.28
2022-10-08T03:46:14.467Z,1.95
2022-10-08T03:48:41.977Z,1.85
2022-10-08T03:51:12.578Z,2.08
2022-10-08T03:53:40.830Z,1.50
2022-10-08T03:56:10.886Z,2.30
2022-10-08T03:58:37.910Z,2.08
2022-10-08T04:01:07.504Z,2.30
2022-10-08T04:03:34.634Z,1.85
2022-10-08T04:06:01.456Z,2.42
2022-10-08T04:08:28.897Z,2.15
2022-10-08T04:10:55.955Z,2.15
2022-10-08T04:13:23.321Z,2.67
2022-10-08T04:15:50.837Z,2.75
2022-10-08T04:18:17.776Z,2.38
2022-10-08T04:20:44.735Z,2.13
2022-10-08T04:23:11.690Z,2.00
2022-10-08T04:25:38.279Z,2.72
2022-10-08T04:28:05.759Z,2.42
2022-10-08T04:30:32.830Z,2.95
2022-10-08T04:32:59.373Z,2.92
2022-10-08T04:35:26.141Z,3.10
2022-10-08T04:37:52.674Z,3.65
2022-10-08T04:40:19.203Z,3.60
2022-10-08T04:42:50.864Z,3.83
2022-10-08T04:45:17.672Z,4.38
2022-10-08T04:47:44.237Z,4.10
2022-10-08T04:50:11.192Z,3.15
2022-10-08T04:52:37.680Z,3.03
2022-10-08T04:55:04.645Z,3.70
2022-10-08T04:57:31.469Z,4.03
2022-10-08T05:00:17.509Z,4.07
2022-10-08T05:02:45.700Z,3.75
2022-10-08T05:05:12.576Z,3.55
2022-10-08T05:07:39.111Z,2.95
2022-10-08T05:10:06.143Z,3.58
2022-10-08T05:12:32.680Z,3.58
2022-10-08T05:14:59.184Z,3.58
2022-10-08T05:17:25.830Z,3.42
2022-10-08T05:19:52.774Z,3.10
2022-10-08T05:22:19.396Z,4.03
2022-10-08T05:24:45.898Z,3.20
2022-10-08T05:27:12.451Z,3.45
2022-10-08T05:29:38.978Z,3.25
2022-10-08T05:32:05.618Z,3.72
2022-10-08T05:34:32.252Z,3.65
2022-10-08T05:36:58.815Z,3.88
2022-10-08T05:39:25.468Z,3.22
2022-10-08T05:41:53.192Z,4.38
2022-10-08T05:44:19.945Z,5.00
2022-10-08T05:46:46.592Z,3.67
2022-10-08T05:49:18.717Z,3.90
2022-10-08T05:51:45.698Z,4.28
2022-10-08T05:54:12.235Z,3.40
2022-10-08T05:56:38.806Z,3.90
2022-10-08T05:59:05.517Z,3.35
2022-10-08T06:01:33.835Z,3.63
2022-10-08T06:04:08.710Z,3.70
2022-10-08T06:06:37.168Z,2.90
2022-10-08T06:09:04.532Z,2.67
2022-10-08T06:11:33.738Z,3.15
2022-10-08T06:14:01.084Z,3.13
2022-10-08T06:16:29.520Z,3.25
2022-10-08T06:18:56.685Z,2.72
2022-10-08T06:21:25.511Z,2.45
2022-10-08T06:23:54.804Z,2.60
2022-10-08T06:26:23.599Z,2.08
2022-10-08T06:28:50.159Z,2.38
2022-10-08T06:31:17.071Z,2.20
2022-10-08T06:33:44.171Z,1.75
2022-10-08T06:36:25.319Z,2.42
2022-10-08T06:38:53.601Z,2.45
2022-10-08T06:41:21.170Z,2.10
2022-10-08T06:43:48.694Z,1.95
2022-10-08T06:46:15.898Z,2.05
2022-10-08T06:48:42.727Z,1.77
2022-10-08T06:51:14.899Z,2.10
2022-10-08T06:53:42.589Z,2.33
2022-10-08T06:56:14.629Z,1.83
2022-10-08T06:58:43.682Z,1.40
2022-10-08T07:01:27.961Z,2.10
2022-10-08T07:04:00.436Z,2.17
2022-10-08T07:06:27.804Z,2.13
2022-10-08T07:08:56.411Z,2.28
2022-10-08T07:11:24.477Z,2.60
2022-10-08T07:13:51.120Z,3.03
2022-10-08T07:16:21.254Z,2.75
2022-10-08T07:18:50.022Z,2.50
2022-10-08T07:21:18.137Z,2.88
2022-10-08T07:23:45.328Z,2.60
2022-10-08T07:26:17.288Z,2.97
2022-10-08T07:29:01.922Z,3.13
2022-10-08T07:31:34.860Z,2.70
2022-10-08T07:34:04.347Z,3.00
2022-10-08T07:36:31.059Z,2.00
2022-10-08T07:39:03.393Z,3.33
2022-10-08T07:41:30.327Z,3.10
2022-10-08T07:43:59.549Z,3.63
2022-10-08T07:46:28.122Z,3.42
2022-10-08T07:48:56.731Z,3.13
2022-10-08T07:51:23.438Z,3.35
2022-10-08T07:53:50.065Z,2.60
2022-10-08T07:56:18.519Z,3.00
2022-10-08T07:58:45.635Z,2.30
2022-10-08T08:01:15.478Z,2.28
2022-10-08T08:03:43.107Z,2.70
2022-10-08T08:06:15.945Z,2.40
2022-10-08T08:08:44.776Z,2.38
2022-10-08T08:11:14.764Z,2.80
2022-10-08T08:13:42.222Z,2.83
2022-10-08T08:16:10.569Z,2.50
2022-10-08T08:18:39.884Z,3.25
2022-10-08T08:21:09.834Z,2.72
2022-10-08T08:23:38.889Z,3.10
2022-10-08T08:26:08.457Z,4.13
2022-10-08T08:28:35.439Z,3.20
2022-10-08T08:31:14.310Z,3.33
2022-10-08T08:33:41.773Z,3.22
2022-10-08T08:36:09.384Z,3.47
2022-10-08T08:38:37.285Z,3.15
2022-10-08T08:41:23.145Z,3.85
2022-10-08T08:46:24.126Z,4.05
2022-10-08T08:48:53.257Z,3.67
2022-10-08T08:51:20.062Z,3.92
2022-10-08T08:53:47.026Z,3.97
2022-10-08T08:56:18.180Z,3.85
2022-10-08T08:59:22.220Z,4.38
2022-10-08T09:01:49.467Z,4.55
2022-10-08T09:04:29.391Z,3.72
2022-10-08T09:06:58.262Z,4.53
2022-10-08T09:09:37.092Z,3.78
2022-10-08T09:12:21.035Z,4.47
2022-10-08T09:14:52.923Z,3.15
2022-10-08T09:17:23.949Z,3.60
2022-10-08T09:19:51.037Z,3.85
2022-10-08T09:22:30.491Z,4.47
2022-10-08T09:25:00.582Z,3.38
2022-10-08T09:27:51.044Z,3.03
2022-10-08T09:30:28.919Z,3.10
2022-10-08T09:32:58.663Z,3.13
2022-10-08T09:35:25.977Z,3.83
2022-10-08T09:37:53.120Z,3.58
2022-10-08T09:40:25.606Z,3.30
2022-10-08T09:43:11.807Z,3.63
2022-10-08T09:45:44.846Z,3.67
2022-10-08T09:48:22.549Z,3.38
2022-10-08T09:50:56.615Z,2.92
2022-10-08T09:53:27.582Z,3.30
2022-10-08T09:56:01.745Z,2.60
2022-10-08T09:58:35.424Z,3.05
2022-10-08T10:01:06.435Z,2.58
2022-10-08T10:03:35.278Z,1.95
2022-10-08T10:06:02.098Z,2.92
2022-10-08T10:08:54.336Z,1.75
2022-10-08T10:11:28.147Z,1.65
2022-10-08T10:13:57.441Z,1.90
2022-10-08T10:16:31.249Z,1.40
2022-10-08T10:19:07.420Z,1.63
2022-10-08T10:21:50.975Z,1.60
2022-10-08T10:24:39.189Z,1.10
2022-10-08T10:27:28.387Z,1.08
2022-10-08T10:30:15.388Z,1.58
2022-10-08T10:32:53.439Z,1.35
2022-10-08T10:35:28.912Z,1.08
2022-10-08T10:40:47.253Z,1.50
2022-10-08T10:43:39.416Z,1.60
2022-10-08T10:46:44.296Z,1.15
2022-10-08T10:49:15.488Z,1.10
2022-10-08T10:52:20.990Z,0.77
2022-10-08T10:55:08.577Z,0.80
2022-10-08T10:57:53.606Z,1.23
2022-10-08T11:00:50.990Z,0.95
2022-10-08T11:03:30.887Z,1.17
2022-10-08T11:06:26.662Z,1.00
2022-10-08T11:08:56.250Z,0.82
2022-10-08T11:11:33.384Z,1.13
2022-10-08T11:14:12.056Z,0.85
2022-10-08T11:16:55.330Z,1.13
2022-10-08T11:19:57.322Z,1.02
2022-10-08T11:22:38.723Z,0.90
2022-10-08T11:25:11.049Z,1.02
2022-10-08T11:28:02.476Z,0.75
2022-10-08T11:30:57.342Z,1.17
2022-10-08T11:33:25.308Z,1.13
2022-10-08T11:36:18.519Z,0.88
2022-10-08T11:39:05.218Z,0.93
2022-10-08T11:41:44.233Z,0.75
2022-10-08T11:44:12.635Z,0.60
2022-10-08T11:46:39.364Z,0.95
2022-10-08T11:49:15.345Z,0.52
2022-10-08T11:51:46.461Z,0.50
2022-10-08T11:54:34.229Z,0.60
2022-10-08T11:57:22.528Z,0.57
2022-10-08T12:00:07.713Z,0.30
2022-10-08T12:05:23.076Z,0.63
2022-10-08T12:07:53.402Z,0.68
2022-10-08T12:10:19.868Z,0.75
2022-10-08T12:12:49.479Z,0.45
2022-10-08T12:15:25.334Z,0.82
2022-10-08T12:17:55.317Z,0.95
2022-10-08T12:20:25.433Z,0.70
2022-10-08T12:23:00.158Z,0.38
2022-10-08T12:25:46.300Z,0.77
2022-10-08T12:28:19.091Z,0.30
2022-10-08T12:30:54.153Z,0.68
2022-10-08T12:33:21.654Z,0.40
2022-10-08T12:36:18.122Z,0.75
2022-10-08T12:39:02.606Z,0.47
2022-10-08T12:41:38.859Z,0.65
2022-10-08T12:44:19.484Z,0.40
2022-10-08T12:47:08.264Z,0.85
2022-10-08T12:50:08.869Z,0.68
2022-10-08T12:52:36.471Z,1.08
2022-10-08T12:55:04.921Z,1.33
2022-10-08T12:57:35.839Z,0.73
2022-10-08T13:00:21.617Z,0.60
2022-10-08T13:03:05.095Z,0.40
2022-10-08T13:05:36.793Z,0.45
2022-10-08T13:08:36.996Z,0.50
2022-10-08T13:11:14.784Z,1.02
2022-10-08T13:13:41.811Z,0.50
2022-10-08T13:16:23.863Z,0.60
2022-10-08T13:18:57.373Z,1.08
2022-10-08T13:21:25.928Z,0.57
2022-10-08T13:23:53.283Z,0.85
2022-10-08T13:26:40.769Z,1.10
2022-10-08T13:29:37.479Z,0.80
2022-10-08T13:32:12.767Z,0.60
2022-10-08T13:34:39.411Z,0.50
2022-10-08T13:37:21.088Z,1.15
2022-10-08T13:39:59.986Z,0.60
2022-10-08T13:42:41.390Z,0.52
2022-10-08T13:45:24.004Z,0.43
2022-10-08T13:47:51.538Z,0.40
2022-10-08T13:50:18.693Z,0.32
2022-10-08T13:52:48.143Z,0.63
2022-10-08T13:55:27.419Z,0.38
2022-10-08T13:57:55.461Z,0.55
2022-10-08T14:00:23.281Z,1.25
2022-10-08T14:02:51.614Z,0.52
2022-10-08T14:05:19.586Z,0.80
2022-10-08T14:07:49.048Z,0.50
2022-10-08T14:10:18.138Z,0.40
2022-10-08T14:12:45.460Z,0.88
2022-10-08T14:15:14.529Z,0.50
2022-10-08T14:17:41.141Z,0.57
2022-10-08T14:20:08.684Z,0.93
2022-10-08T14:22:38.758Z,0.60
2022-10-08T14:25:16.166Z,1.33
2022-10-08T14:27:42.953Z,0.57
2022-10-08T14:30:11.647Z,0.73
2022-10-08T14:32:38.399Z,0.60
2022-10-08T14:35:06.641Z,0.63
2022-10-08T14:37:34.617Z,0.93
2022-10-08T14:40:01.643Z,0.65
2022-10-08T14:42:28.251Z,0.77
2022-10-08T14:44:54.825Z,0.30
2022-10-08T14:47:21.408Z,0.45
2022-10-08T14:49:47.996Z,0.52
2022-10-08T14:52:14.669Z,0.60
2022-10-08T14:54:41.422Z,0.82
2022-10-08T14:57:08.238Z,0.60
2022-10-08T14:59:39.732Z,1.10
2022-10-08T15:02:09.765Z,0.70
2022-10-08T15:04:36.461Z,0.43
2022-10-08T15:07:03.159Z,0.82
2022-10-08T15:09:31.250Z,0.57
2022-10-08T15:11:58.057Z,0.70
2022-10-08T15:14:24.586Z,0.65
2022-10-08T15:16:51.382Z,0.98
2022-10-08T15:19:23.337Z,0.50
2022-10-08T15:21:50.651Z,0.80
2022-10-08T15:24:17.364Z,0.70
2022-10-08T15:26:45.033Z,0.60
2022-10-08T15:29:11.694Z,1.05
2022-10-08T15:31:38.347Z,0.68
2022-10-08T15:34:05.008Z,0.77
2022-10-08T15:36:36.045Z,0.88
2022-10-08T15:39:11.733Z,0.88
2022-10-08T15:41:41.923Z,0.75
2022-10-08T15:44:10.207Z,0.75
2022-10-08T15:46:37.716Z,0.75
2022-10-08T15:49:05.161Z,0.90
2022-10-08T15:51:31.738Z,0.40
2022-10-08T15:53:59.104Z,0.80
2022-10-08T15:56:26.057Z,0.85
2022-10-08T15:58:52.762Z,0.80
2022-10-08T16:01:23.212Z,0.45
2022-10-08T16:03:51.920Z,0.90
2022-10-08T16:06:22.022Z,0.85
2022-10-08T16:08:49.176Z,0.93
2022-10-08T16:11:18.696Z,0.75
2022-10-08T16:13:54.833Z,1.10
2022-10-08T16:16:22.389Z,0.70
2022-10-08T16:18:54.846Z,0.82
2022-10-08T16:21:21.800Z,0.60
2022-10-08T16:23:48.782Z,0.50
2022-10-08T16:26:20.433Z,0.70
2022-10-08T16:28:56.302Z,1.08
2022-10-08T16:31:25.466Z,1.35
2022-10-08T16:34:00.631Z,0.80
2022-10-08T16:36:29.798Z,1.15
2022-10-08T16:38:57.664Z,0.50
2022-10-08T16:41:29.357Z,0.70
2022-10-08T16:43:58.817Z,1.10
2022-10-08T16:46:30.918Z,1.20
2022-10-08T16:49:00.396Z,0.65
2022-10-08T16:51:29.600Z,0.57
2022-10-08T16:53:58.001Z,0.70
2022-10-08T16:56:27.422Z,0.80
2022-10-08T16:59:00.357Z,0.60
2022-10-08T17:01:27.822Z,0.93
2022-10-08T17:03:54.995Z,0.30
2022-10-08T17:06:23.362Z,0.65
2022-10-08T17:08:51.242Z,0.60
2022-10-08T17:11:18.880Z,0.60
2022-10-08T17:13:48.498Z,0.80
2022-10-08T17:16:17.268Z,0.85
2022-10-08T17:18:46.679Z,0.82
2022-10-08T17:21:14.430Z,0.90
2022-10-08T17:23:40.939Z,0.60
2022-10-08T17:26:13.809Z,0.90
2022-10-08T17:28:43.563Z,1.10
2022-10-08T17:31:16.399Z,0.60
2022-10-08T17:33:43.731Z,0.77
2022-10-08T17:36:22.481Z,0.75
2022-10-08T17:38:52.589Z,0.95
2022-10-08T17:41:25.227Z,0.77
2022-10-08T17:43:52.832Z,1.00
2022-10-08T17:46:25.760Z,0.90
2022-10-08T17:48:53.108Z,0.88
2022-10-08T17:51:21.997Z,1.42
2022-10-08T17:54:03.141Z,1.00
2022-10-08T17:56:31.881Z,1.23
2022-10-08T17:58:58.979Z,0.93
2022-10-08T18:01:34.493Z,1.13
2022-10-08T18:04:07.631Z,1.02
2022-10-08T18:06:37.509Z,0.82
2022-10-08T18:09:07.382Z,1.30
2022-10-08T18:11:36.556Z,1.10
2022-10-08T18:14:04.057Z,0.93
2022-10-08T18:16:30.696Z,1.20
2022-10-08T18:18:57.278Z,1.15
2022-10-08T18:21:24.047Z,1.15
2022-10-08T18:23:50.812Z,0.70
2022-10-08T18:26:30.767Z,1.42
2022-10-08T18:28:59.872Z,1.58
2022-10-08T18:31:29.634Z,1.92
2022-10-08T18:34:02.192Z,2.45
2022-10-08T18:36:31.374Z,3.22
2022-10-08T18:39:03.692Z,2.63
2022-10-08T18:41:32.864Z,1.58
2022-10-08T18:44:00.595Z,1.20
2022-10-08T18:46:28.615Z,1.50
2022-10-08T18:48:56.026Z,1.55
2022-10-08T18:51:26.225Z,2.05
2022-10-08T18:53:55.005Z,1.33
2022-10-08T18:56:28.637Z,1.33
2022-10-08T18:58:57.291Z,1.70
2022-10-08T19:01:32.349Z,1.58
2022-10-08T19:04:01.574Z,2.15
2022-10-08T19:06:31.815Z,1.60
2022-10-08T19:09:00.110Z,2.33
2022-10-08T19:11:38.494Z,2.42
2022-10-08T19:14:10.537Z,1.27
2022-10-08T19:16:39.276Z,1.17
2022-10-08T19:19:15.062Z,1.17
2022-10-08T19:21:42.018Z,1.05
2022-10-08T19:24:14.569Z,0.80
2022-10-08T19:26:42.657Z,0.88
2022-10-08T19:29:21.401Z,0.90
2022-10-08T19:31:49.832Z,0.95
2022-10-08T19:34:19.218Z,0.93
2022-10-08T19:36:46.562Z,0.75
2022-10-08T19:39:21.107Z,1.00
2022-10-08T19:41:47.862Z,1.20
2022-10-08T19:44:16.391Z,1.40
2022-10-08T19:46:43.454Z,0.90
2022-10-08T19:49:10.917Z,0.93
2022-10-08T19:51:38.050Z,1.00
2022-10-08T19:54:05.022Z,0.93
2022-10-08T19:56:31.903Z,0.80
2022-10-08T19:58:59.088Z,1.00
2022-10-08T20:01:28.775Z,1.10
2022-10-08T20:03:57.274Z,1.33
2022-10-08T20:06:27.188Z,1.02
2022-10-08T20:08:54.945Z,0.98
2022-10-08T20:11:22.225Z,0.90
2022-10-08T20:13:50.954Z,1.08
2022-10-08T20:16:20.233Z,1.52
2022-10-08T20:18:52.202Z,0.90
2022-10-08T20:21:20.342Z,0.70
2022-10-08T20:23:47.301Z,1.05
2022-10-08T20:26:15.334Z,0.70
2022-10-08T20:28:46.094Z,0.70
2022-10-08T20:31:15.890Z,1.30
2022-10-08T20:33:43.929Z,0.90
2022-10-08T20:36:16.625Z,0.80
2022-10-08T20:38:43.787Z,0.88
2022-10-08T20:41:10.487Z,1.00
2022-10-08T20:43:38.213Z,1.30
2022-10-08T20:46:07.760Z,0.98
2022-10-08T20:48:36.303Z,1.20
2022-10-08T20:51:29.457Z,1.05
2022-10-08T20:53:57.328Z,1.92
2022-10-08T20:56:24.708Z,1.00
2022-10-08T20:58:52.269Z,1.33
2022-10-08T21:01:26.996Z,1.17
2022-10-08T21:03:54.654Z,1.20
2022-10-08T21:06:26.512Z,1.10
2022-10-08T21:08:55.513Z,1.65
2022-10-08T21:11:24.668Z,1.88
2022-10-08T21:13:51.860Z,1.83
2022-10-08T21:16:49.184Z,2.00
2022-10-08T21:19:24.161Z,1.27
2022-10-08T21:21:51.650Z,1.80
2022-10-08T21:24:18.422Z,2.10
2022-10-08T21:26:45.115Z,1.90
2022-10-08T21:29:13.735Z,2.15
2022-10-08T21:31:42.347Z,2.05
2022-10-08T21:34:11.832Z,2.75
2022-10-08T21:36:41.130Z,2.53
2022-10-08T21:39:10.600Z,2.53
2022-10-08T21:41:38.014Z,2.72
2022-10-08T21:44:06.966Z,2.80
2022-10-08T21:46:36.981Z,3.33
2022-10-08T21:49:06.753Z,2.83
2022-10-08T21:51:34.532Z,2.92
2022-10-08T21:54:03.124Z,3.15
2022-10-08T21:56:32.346Z,3.03
2022-10-08T21:59:00.457Z,2.60
2022-10-08T22:01:30.734Z,4.55
2022-10-08T22:04:03.620Z,4.10
2022-10-08T22:06:32.308Z,4.50
2022-10-08T22:08:59.651Z,3.25
2022-10-08T22:11:26.410Z,2.97
2022-10-08T22:13:53.198Z,3.22
2022-10-08T22:16:21.188Z,3.30
2022-10-08T22:18:47.785Z,3.65
2022-10-08T22:21:20.466Z,3.78
2022-10-08T22:23:50.530Z,3.85
2022-10-08T22:26:27.807Z,3.03
2022-10-08T22:28:54.657Z,4.03
2022-10-08T22:31:21.403Z,3.00
2022-10-08T22:33:48.573Z,4.88
2022-10-08T22:36:23.777Z,4.57
2022-10-08T22:38:50.803Z,5.22
2022-10-08T22:41:23.740Z,4.68
2022-10-08T22:43:50.681Z,5.30
2022-10-08T22:46:26.611Z,5.60
2022-10-08T22:48:58.168Z,5.00
2022-10-08T22:51:24.934Z,5.10
2022-10-08T22:53:51.594Z,4.22
2022-10-08T22:56:23.345Z,3.47
2022-10-08T22:58:51.035Z,2.85
2022-10-08T23:01:20.166Z,2.95
2022-10-08T23:03:47.441Z,2.80
2022-10-08T23:06:29.135Z,3.38
2022-10-08T23:08:57.965Z,2.70
2022-10-08T23:11:25.273Z,2.78
2022-10-08T23:13:53.466Z,2.95
2022-10-08T23:16:20.630Z,2.70
2022-10-08T23:19:02.063Z,2.67
2022-10-08T23:21:28.939Z,3.30
2022-10-08T23:23:55.821Z,2.35
2022-10-08T23:26:23.027Z,2.35
2022-10-08T23:28:54.675Z,3.72
2022-10-08T23:31:24.133Z,2.60
2022-10-08T23:33:52.565Z,2.72
2022-10-08T23:36:25.289Z,3.42
2022-10-08T23:38:52.831Z,2.20
2022-10-08T23:41:20.136Z,2.97
2022-10-08T23:43:48.655Z,2.65
2022-10-08T23:46:18.883Z,2.10
2022-10-08T23:48:45.783Z,2.75
2022-10-08T23:51:14.658Z,2.47
2022-10-08T23:53:42.434Z,3.00
2022-10-08T23:56:09.659Z,2.22
2022-10-08T23:58:36.389Z,2.22
